South Reno (Wolf Run), Nevada Weather observations

Data are for observation ending at time listed.
 Day   Time    Ave.   Ave.  Ave.  Vector   Max.   Stn.    Total    Solar   Ave.  
  of    of     Air    Rel.  Wind   Wind    Wind   Baro.  Precip.   Rad.    Soil  
Year   Day     Temp.  Hum.  Speed  Dir.    Gust   Pres.                    Temp. 
2014   (PST)    F      %     mph   deg.    mph     mb.     in.     W/m2     F   
------------------------------------------------------------------------------
 263    0:00   61.3    41    1.8   243      4.5  99999.0    0.00       0    64.2
 263    0:10   61.0    41    1.9   236      4.2  99999.0    0.00       0    64.1
 263    0:20   61.5    40    2.5   236      3.7  99999.0    0.00       0    64.1
 263    0:30   60.5    41    2.9   233      4.5  99999.0    0.00       0    64.0
 263    0:40   59.9    42    2.8   231      3.9  99999.0    0.00       0    64.0
 263    0:50   59.2    43    2.9   238      4.0  99999.0    0.00       0    63.9
 263    1:00   59.5    42    2.6   242      4.1  99999.0    0.00       0    63.9
 263    1:10   59.4    42    2.4   241      3.5  99999.0    0.00       0    63.8
 263    1:20   59.2    43    2.9   238      3.7  99999.0    0.00       0    63.8
 263    1:30   58.9    45    3.7   246      6.3  99999.0    0.00       0    63.7
 263    1:40   59.0    44    3.8   237      5.2  99999.0    0.00       0    63.6
 263    1:50   58.4    44    3.4   236      5.0  99999.0    0.00       0    63.6
 263    2:00   59.1    42    2.5   237      4.6  99999.0    0.00       0    63.5
 263    2:10   59.3    42    2.7   237      3.5  99999.0    0.00       0    63.5
 263    2:20   58.3    44    2.0   245      2.9  99999.0    0.00       0    63.4
 263    2:30   57.7    45    2.6   238      3.1  99999.0    0.00       0    63.4
 263    2:40   56.3    47    3.4   228      4.6  99999.0    0.00       0    63.3
 263    2:50   56.4    47    3.3   230      5.1  99999.0    0.00       0    63.3
 263    3:00   56.6    46    3.0   235      4.1  99999.0    0.00       0    63.2
 263    3:10   56.6    46    3.1   238      5.3  99999.0    0.00       0    63.2
 263    3:20   56.4    46    3.4   230      4.3  99999.0    0.00       0    63.1
 263    3:30   56.3    47    3.2   234      4.6  99999.0    0.00       0    63.0
 263    3:40   57.1    46    3.5   235      6.0  99999.0    0.00       0    63.0
 263    3:50   56.5    46    3.3   235      6.7  99999.0    0.00       0    63.0
 263    4:00   56.6    46    3.2   229      4.6  99999.0    0.00       0    62.9
 263    4:10   56.2    45    3.0   235      4.1  99999.0    0.00       0    62.9
 263    4:20   56.4    45    3.3   238      5.4  99999.0    0.00       0    62.8
 263    4:30   56.2    46    3.5   237      5.2  99999.0    0.00       0    62.7
 263    4:40   56.5    45    3.4   239      4.9  99999.0    0.00       0    62.7
 263    4:50   56.3    48    3.5   242      6.0  99999.0    0.00       0    62.7
 263    5:00   56.4    46    3.3   234      5.2  99999.0    0.00       0    62.6
 263    5:10   56.2    46    3.2   233      4.5  99999.0    0.00       0    62.5
 263    5:20   55.9    46    3.5   231      4.9  99999.0    0.00       0    62.5
 263    5:30   55.8    46    3.2   230      4.5  99999.0    0.00       0    62.5
 263    5:40   55.7    47    3.5   230      4.7  99999.0    0.00       2    62.4
 263    5:50   55.6    46    3.1   237      4.1  99999.0    0.00       5    62.3
 263    6:00   56.0    46    2.9   238      3.8  99999.0    0.00      16    62.3
 263    6:10   56.0    47    3.4   238      5.0  99999.0    0.00      32    62.3
 263    6:20   56.9    46    3.8   234      4.9  99999.0    0.00      54    62.2
 263    6:30   58.3    44    3.5   235      4.3  99999.0    0.00      71    62.2
 263    6:40   59.9    43    3.2   241      5.0  99999.0    0.00     105    62.1
 263    6:50   61.4    41    2.0   233      3.3  99999.0    0.00     116    62.1
 263    7:00   63.4    39    0.0     0      0.0  99999.0    0.00     149    62.0
 263    7:10   64.2    42    0.0     0      0.0  99999.0    0.00     187    62.0
 263    7:20   64.6    37    0.0    32      0.5  99999.0    0.00     201    62.0
 263    7:30   66.4    33    1.1    55      2.5  99999.0    0.00     242    61.9
 263    7:40   67.1    35    0.9    20      2.7  99999.0    0.00     345    61.9
 263    7:50   67.8    34    0.5    33      2.6  99999.0    0.00     259    61.9
 263    8:00   67.9    34    1.4    35      4.1  99999.0    0.00     282    61.8
 263    8:10   66.7    41    2.0    28      3.8  99999.0    0.00     302    61.8
 263    8:20   66.5    43    2.4    55      4.3  99999.0    0.00     340    61.8
 263    8:30   66.4    41    2.7    42      5.2  99999.0    0.00     379    61.8
 263    8:40   67.2    34    2.1    39      3.7  99999.0    0.00     454    61.8
 263    8:50   69.2    32    1.2    36      3.4  99999.0    0.00     472    61.8
 263    9:00   69.7    32    2.7    27      4.9  99999.0    0.00     552    61.9
 263    9:10   70.5    32    3.1    19      5.7  99999.0    0.00     640    61.9
 263    9:20   71.7    31    3.5    30      6.5  99999.0    0.00     658    61.9
 263    9:30   73.0    30    2.1    31      5.9  99999.0    0.00     620    62.0
 263    9:40   73.0    29    4.2    38      7.3  99999.0    0.00     405    62.0
 263    9:50   72.6    28    5.0    29      8.5  99999.0    0.00     720    62.1
 263   10:00   74.1    27    3.2    28      6.1  99999.0    0.00     696    62.2
 263   10:10   74.8    25    3.5    20      6.4  99999.0    0.00     757    62.2
 263   10:20   75.3    25    3.4   346      7.5  99999.0    0.00     746    62.3
 263   10:30   76.1    25    2.5   348      5.9  99999.0    0.00     768    62.4
 263   10:40   77.7    26    1.9   309      5.3  99999.0    0.00     669    62.5
 263   10:50   77.5    23    3.8   357      7.5  99999.0    0.00     741    62.6
 263   11:00   78.5    23    2.9   342      6.9  99999.0    0.00     866    62.7
 263   11:10   79.0    22    4.4   353      7.8  99999.0    0.00     825    62.8
 263   11:20   78.9    22    4.8    34      8.1  99999.0    0.00     741    62.9
 263   11:30   78.9    22    2.6   332      7.8  99999.0    0.00     877    63.0
 263   11:40   79.8    21    4.5    13     12.0  99999.0    0.00     795    63.2
 263   11:50   79.4    21    2.7   344      8.4  99999.0    0.00     842    63.3
 263   12:00   80.3    20    4.7    22      9.5  99999.0    0.00     746    63.5
 263   12:10   81.3    19    4.7    19     12.0  99999.0    0.00     899    63.6
 263   12:20   82.1    18    7.6    84     18.6  99999.0    0.00     799    63.8
 263   12:30   80.9    19    8.8    94     16.1  99999.0    0.00     695    63.9
 263   12:40   81.8    18    8.7    99     14.4  99999.0    0.00     798    64.0
 263   12:50   82.1    18    9.4    98     15.8  99999.0    0.00     825    64.2
 263   13:00   81.4    18    8.9   116     17.8  99999.0    0.00     736    64.3
 263   13:10   81.4    18   10.0   128     20.5  99999.0    0.00     832    64.5
 263   13:20   81.6    18   11.1   107     18.6  99999.0    0.00     683    64.6
 263   13:30   81.1    18    9.4   111     18.8  99999.0    0.00     673    64.7
 263   13:40   81.7    18   11.4   124     18.4  99999.0    0.00     640    64.9
 263   13:50   82.1    18    9.7   114     16.5  99999.0    0.00     748    65.0
 263   14:00   82.3    18    8.2   104     19.3  99999.0    0.00     567    65.1
 263   14:10   82.7    17   11.7    98     17.2  99999.0    0.00     710    65.2
 263   14:20   82.2    17    7.1    87     12.6  99999.0    0.00     585    65.3
 263   14:30   82.4    17    6.0   101     12.0  99999.0    0.00     578    65.4
 263   14:40   82.6    17    5.4    79     13.0  99999.0    0.00     494    65.5
 263   14:50   82.4    17    7.8   179     18.1  99999.0    0.00     399    65.6
 263   15:00   82.0    17    7.9   112     18.0  99999.0    0.00     328    65.6
 263   15:10   81.2    18    9.8   115     16.6  99999.0    0.00     236    65.7
 263   15:20   80.7    18   11.3    96     17.7  99999.0    0.00     227    65.8
 263   15:30   80.0    20   14.5   103     22.3  99999.0    0.00     201    65.8
 263   15:40   79.7    20   11.5    94     21.1  99999.0    0.00     158    65.9
 263   15:50   79.1    21   13.4   104     21.8  99999.0    0.00     161    65.9
 263   16:00   78.9    22   11.6   106     18.1  99999.0    0.00     169    66.0
 263   16:10   78.7    22   11.2   107     18.6  99999.0    0.00     146    66.0
 263   16:20   78.3    23   11.1   108     18.2  99999.0    0.00     130    66.1
 263   16:30   78.3    22    7.1    97     11.7  99999.0    0.00     103    66.1
 263   16:40   78.0    23   10.2    91     19.8  99999.0    0.00      89    66.1
 263   16:50   78.2    22    9.2    91     15.8  99999.0    0.00     105    66.1
 263   17:00   78.2    23   10.6   100     16.4  99999.0    0.00     108    66.1
 263   17:10   77.9    23    9.2    98     17.3  99999.0    0.00      71    66.1
 263   17:20   77.7    23    7.8    92     12.8  99999.0    0.00      45    66.1
 263   17:30   77.5    23    6.9    94     10.7  99999.0    0.00      30    66.1
 263   17:40   77.0    23    9.5   100     15.9  99999.0    0.00      18    66.0
 263   17:50   76.5    24    7.2   103     12.6  99999.0    0.00      10    66.0
 263   18:00   76.3    24    3.9   103      8.3  99999.0    0.00       4    66.0
 263   18:10   75.9    25    3.7    88      6.8  99999.0    0.00       4    66.0
 263   18:20   75.3    25    0.3    94      3.3  99999.0    0.00       0    65.9
 263   18:30   74.0    27    2.0   261      4.0  99999.0    0.00       0    65.9
 263   18:40   70.9    30    2.2   232      4.6  99999.0    0.00       0    65.9
 263   18:50   70.7    31    0.7   306      3.9  99999.0    0.00       0    65.8
 263   19:00   71.3    29    1.0   193      4.3  99999.0    0.00       0    65.8
 263   19:10   73.4    27    5.2   112     12.9  99999.0    0.00       0    65.8
 263   19:20   74.4    26    2.2   176      8.4  99999.0    0.00       0    65.7
 263   19:30   74.6    26    5.4   123     11.5  99999.0    0.00       0    65.7
 263   19:40   74.2    27    1.6    66      3.8  99999.0    0.00       0    65.7
 263   19:50   72.6    30    0.6   330      4.5  99999.0    0.00       0    65.6
 263   20:00   72.4    29    2.5   282      5.8  99999.0    0.00       0    65.6
 263   20:10   72.5    29    2.7   230      6.3  99999.0    0.00       0    65.5
 263   20:20   73.3    29    0.9   169      4.7  99999.0    0.00       0    65.5
 263   20:30   72.2    30    0.4   124      2.8  99999.0    0.00       0    65.5
 263   20:40   72.0    29    1.6   195      4.5  99999.0    0.00       0    65.4
 263   20:50   72.0    29    5.2   208     15.9  99999.0    0.00       0    65.4
 263   21:00   69.2    35    9.8   227     13.3  99999.0    0.00       0    65.3
 263   21:10   67.9    35    7.9   217     13.9  99999.0    0.00       0    65.3
 263   21:20   70.2    31    8.0   218     16.0  99999.0    0.00       0    65.3
 263   21:30   68.4    33   10.8   224     16.8  99999.0    0.00       0    65.2
 263   21:40   68.5    33    7.8   209     14.2  99999.0    0.00       0    65.2
 263   21:50   68.0    34    8.0   225     15.7  99999.0    0.00       0    65.1
 263   22:00   67.2    36   10.5   232     16.4  99999.0    0.00       0    65.0
 263   22:10   65.7    42    8.0   238     15.7  99999.0    0.00       0    65.0
 263   22:20   66.2    37    4.0   206      8.2  99999.0    0.00       0    64.9
 263   22:30   67.1    35    5.7   194      9.9  99999.0    0.00       0    64.8
 263   22:40   67.0    36    7.5   201     13.0  99999.0    0.00       0    64.8
 263   22:50   66.6    37   10.7   213     16.8  99999.0    0.00       0    64.7
 263   23:00   66.0    38   12.8   216     19.5  99999.0    0.00       0    64.6
 263   23:10   65.9    38   11.9   213     17.4  99999.0    0.00       0    64.5
 263   23:20   66.0    37   10.7   211     16.2  99999.0    0.00       0    64.4

Return to South Reno, Nevada graphs page.


Western Regional Climate Center,wrcc@dri.edu